Time;durP1;ratioP1;P1;durP2;ratioP2;P2;SDS_P1;SDS_P2;PMS_P1;PMS_P2;Temp;Humidity;BMP_temperature;BMP_pressure;BME280_temperature;BME280_humidity;BME280_pressure;Samples;Min_cycle;Max_cycle;Signal;HPM_P1;HPM_P2
2021/07/30 00:00:15;;;;;;;9.75;8.38;;;;;;;14.28;100.00;95731.09;1019939;29;20030;-53
2021/07/30 00:00:46;;;;;;;12.90;8.50;;;;;;;14.29;100.00;95726.66;1020053;29;20016;-52
2021/07/30 00:01:18;;;;;;;11.30;9.30;;;;;;;14.26;100.00;95729.56;1020088;28;20028;-53
2021/07/30 00:01:49;;;;;;;10.18;8.25;;;;;;;14.26;100.00;95730.38;1019891;29;20028;-52
2021/07/30 00:02:20;;;;;;;12.20;9.18;;;;;;;14.25;100.00;95731.38;1023822;28;20025;-53
2021/07/30 00:02:50;;;;;;;11.60;9.10;;;;;;;14.24;100.00;95734.97;1027677;28;20057;-53
2021/07/30 00:03:21;;;;;;;11.27;8.55;;;;;;;14.23;100.00;95732.47;1027726;28;20018;-52
2021/07/30 00:03:51;;;;;;;11.02;8.38;;;;;;;14.24;100.00;95739.41;1027155;28;20015;-53
2021/07/30 00:04:22;;;;;;;10.70;8.30;;;;;;;14.18;100.00;95732.88;1023764;29;20043;-53
2021/07/30 00:04:53;;;;;;;11.75;8.77;;;;;;;14.17;100.00;95734.69;1023822;28;20106;-54
2021/07/30 00:05:23;;;;;;;11.88;8.85;;;;;;;14.18;100.00;95736.34;1023801;29;20111;-53
2021/07/30 00:05:54;;;;;;;10.27;8.77;;;;;;;14.21;100.00;95735.25;1023836;29;20022;-53
2021/07/30 00:06:24;;;;;;;10.13;8.63;;;;;;;14.23;100.00;95730.69;1023893;29;20078;-53
2021/07/30 00:06:55;;;;;;;9.18;7.75;;;;;;;14.23;100.00;95732.47;1019693;29;20016;-53
2021/07/30 00:07:26;;;;;;;11.93;8.50;;;;;;;14.23;100.00;95738.59;1019800;29;20026;-53
2021/07/30 00:07:57;;;;;;;11.75;8.63;;;;;;;14.25;100.00;95738.47;1019864;29;20015;-52
2021/07/30 00:08:27;;;;;;;9.23;8.10;;;;;;;14.23;100.00;95737.72;1016215;29;20016;-53
2021/07/30 00:08:58;;;;;;;10.32;8.07;;;;;;;14.21;100.00;95737.91;1019904;29;20106;-52
2021/07/30 00:09:29;;;;;;;9.93;8.30;;;;;;;14.23;100.00;95737.72;1023976;28;20126;-53
2021/07/30 00:10:00;;;;;;;11.65;8.00;;;;;;;14.22;100.00;95739.53;1024153;28;20027;-53
2021/07/30 00:10:30;;;;;;;8.07;7.22;;;;;;;14.22;100.00;95738.72;1023840;29;20058;-52
2021/07/30 00:11:01;;;;;;;9.63;7.82;;;;;;;14.19;100.00;95738.03;1019762;29;20022;-53
2021/07/30 00:11:31;;;;;;;9.50;7.88;;;;;;;14.17;100.00;95739.09;1016073;29;20024;-53
2021/07/30 00:12:02;;;;;;;10.85;8.45;;;;;;;14.16;100.00;95733.00;1020047;29;20047;-53
2021/07/30 00:12:33;;;;;;;11.52;8.32;;;;;;;14.15;100.00;95741.03;1019960;29;20163;-53
2021/07/30 00:13:04;;;;;;;10.18;7.78;;;;;;;14.13;100.00;95733.31;1023833;28;20478;-53
2021/07/30 00:13:34;;;;;;;8.70;7.78;;;;;;;14.13;100.00;95735.94;1023422;29;20027;-52
2021/07/30 00:14:05;;;;;;;11.25;8.35;;;;;;;14.15;100.00;95733.13;1027679;28;20165;-54
2021/07/30 00:14:36;;;;;;;11.43;8.23;;;;;;;14.14;100.00;95740.22;1027895;28;20021;-52
2021/07/30 00:15:07;;;;;;;11.13;8.15;;;;;;;14.18;100.00;95733.72;1023740;29;20102;-53
2021/07/30 00:15:37;;;;;;;9.15;7.68;;;;;;;14.18;100.00;95732.88;1020141;29;20027;-52
2021/07/30 00:16:08;;;;;;;10.27;7.80;;;;;;;14.16;100.00;95733.00;1023834;29;20541;-53
2021/07/30 00:16:39;;;;;;;12.20;8.27;;;;;;;14.16;100.00;95740.91;1019914;29;20020;-53
2021/07/30 00:17:10;;;;;;;10.48;8.35;;;;;;;14.16;100.00;95738.28;1015991;29;20024;-52
2021/07/30 00:17:40;;;;;;;8.93;7.82;;;;;;;14.15;100.00;95731.38;1016151;29;20483;-52
2021/07/30 00:18:11;;;;;;;13.48;8.27;;;;;;;14.16;100.00;95732.19;1020188;29;20024;-52
2021/07/30 00:18:41;;;;;;;9.73;8.30;;;;;;;14.15;100.00;95736.63;1023861;28;20023;-53
2021/07/30 00:19:12;;;;;;;11.88;8.75;;;;;;;14.16;100.00;95733.00;1023626;28;20081;-52
2021/07/30 00:19:43;;;;;;;8.93;7.45;;;;;;;14.18;100.00;95736.34;1023871;29;20015;-54
2021/07/30 00:20:14;;;;;;;9.68;7.60;;;;;;;14.22;100.00;95728.19;1023862;29;20028;-52
2021/07/30 00:20:44;;;;;;;10.85;7.80;;;;;;;14.23;100.00;95728.03;1023967;28;20023;-53
2021/07/30 00:21:15;;;;;;;11.77;8.18;;;;;;;14.24;100.00;95731.50;1023539;28;20041;-52
2021/07/30 00:21:46;;;;;;;9.25;7.03;;;;;;;14.24;100.00;95723.59;1023939;28;20406;-53
2021/07/30 00:22:16;;;;;;;11.45;7.55;;;;;;;14.25;100.00;95725.28;1019891;29;20102;-52
2021/07/30 00:22:47;;;;;;;9.65;7.35;;;;;;;14.25;100.00;95718.19;1019773;29;20030;-52
2021/07/30 00:23:18;;;;;;;9.45;6.90;;;;;;;14.28;100.00;95723.19;1015702;29;20062;-54
2021/07/30 00:23:49;;;;;;;13.40;7.60;;;;;;;14.27;100.00;95716.25;1019584;28;20042;-52
2021/07/30 00:24:19;;;;;;;9.05;7.40;;;;;;;14.28;100.00;95717.09;1027977;28;20026;-53
2021/07/30 00:24:50;;;;;;;11.68;7.72;;;;;;;14.27;100.00;95720.69;1023827;28;20019;-53
2021/07/30 00:25:20;;;;;;;9.32;7.55;;;;;;;14.26;100.00;95722.47;1027766;28;20105;-53
2021/07/30 00:25:51;;;;;;;9.02;7.45;;;;;;;14.24;100.00;95716.53;1019655;29;20078;-52
2021/07/30 00:26:22;;;;;;;9.73;7.35;;;;;;;14.23;100.00;95719.28;1019871;29;20111;-52
2021/07/30 00:26:52;;;;;;;9.07;7.38;;;;;;;14.18;100.00;95717.06;1023664;29;20016;-53
2021/07/30 00:27:23;;;;;;;11.75;7.35;;;;;;;14.17;100.00;95715.38;1023562;29;20023;-53
2021/07/30 00:27:53;;;;;;;10.02;7.60;;;;;;;14.19;100.00;95716.94;1015861;29;20168;-54
2021/07/30 00:28:24;;;;;;;12.80;7.80;;;;;;;14.18;100.00;95720.53;1019764;29;20458;-53
2021/07/30 00:28:55;;;;;;;8.85;7.35;;;;;;;14.19;100.00;95718.75;1019929;29;20024;-50
2021/07/30 00:29:25;;;;;;;8.93;7.85;;;;;;;14.19;100.00;95713.47;1023674;29;20124;-52
2021/07/30 00:29:56;;;;;;;13.40;8.25;;;;;;;14.20;100.00;95708.06;1015766;29;20024;-53
2021/07/30 00:30:26;;;;;;;11.05;7.50;;;;;;;14.22;100.00;95715.00;1019783;29;20024;-53
2021/07/30 00:30:57;;;;;;;8.60;7.32;;;;;;;14.19;100.00;95711.66;1019721;29;20034;-53
2021/07/30 00:31:28;;;;;;;10.95;7.78;;;;;;;14.23;100.00;95717.50;1019899;29;20022;-53
2021/07/30 00:31:58;;;;;;;10.13;7.63;;;;;;;14.26;100.00;95711.13;1011740;29;20078;-52
2021/07/30 00:32:29;;;;;;;8.73;7.30;;;;;;;14.27;100.00;95712.78;1012165;29;20582;-52
2021/07/30 00:33:00;;;;;;;9.60;7.22;;;;;;;14.27;100.00;95711.00;1015856;29;20079;-52
2021/07/30 00:33:30;;;;;;;9.25;7.25;;;;;;;14.31;100.00;95707.09;1019210;29;20046;-53
2021/07/30 00:34:01;;;;;;;9.45;7.78;;;;;;;14.30;100.00;95707.22;1026257;28;20434;-52
2021/07/30 00:34:32;;;;;;;8.85;7.35;;;;;;;14.29;100.00;95705.59;1027646;28;20169;-53
2021/07/30 00:35:03;;;;;;;9.52;7.70;;;;;;;14.29;100.00;95705.59;1015899;29;20107;-54
2021/07/30 00:35:33;;;;;;;10.15;7.93;;;;;;;14.26;100.00;95704.03;1015492;29;20066;-53
2021/07/30 00:36:04;;;;;;;10.45;7.65;;;;;;;14.27;100.00;95704.88;1012081;29;20016;-54
2021/07/30 00:36:35;;;;;;;9.52;7.90;;;;;;;14.25;100.00;95701.56;1019592;29;20530;-53
2021/07/30 00:37:05;;;;;;;8.95;7.50;;;;;;;14.25;100.00;95704.19;1019850;29;20023;-52
2021/07/30 00:37:37;;;;;;;9.07;7.85;;;;;;;14.16;100.00;95696.13;1019717;29;20027;-54
2021/07/30 00:38:08;;;;;;;9.93;6.65;;;;;;;14.24;100.00;95708.63;1020837;28;20385;-53
2021/07/30 00:38:39;;;;;;;9.27;7.72;;;;;;;14.24;100.00;95707.78;1027748;28;20022;-52
2021/07/30 00:39:10;;;;;;;12.98;7.90;;;;;;;14.23;100.00;95706.97;1027779;28;20456;-53
2021/07/30 00:39:40;;;;;;;10.52;8.10;;;;;;;14.25;100.00;95709.47;1027707;28;20489;-53
2021/07/30 00:40:12;;;;;;;11.57;8.40;;;;;;;14.26;100.00;95706.66;1023737;28;20127;-52
2021/07/30 00:40:42;;;;;;;9.40;8.23;;;;;;;14.25;100.00;95702.38;1019544;29;20019;-53
2021/07/30 00:41:13;;;;;;;14.50;8.27;;;;;;;14.25;100.00;95709.47;1011844;29;20495;-52
2021/07/30 00:41:43;;;;;;;9.90;7.72;;;;;;;14.25;100.00;95702.38;1019794;29;20019;-53
2021/07/30 00:42:14;;;;;;;10.18;8.65;;;;;;;14.24;100.00;95708.63;1023763;28;20015;-53
2021/07/30 00:42:49;;;;;;;10.63;7.60;;;;;;;14.24;100.00;95708.63;1019555;29;20067;-53
2021/07/30 00:43:20;;;;;;;11.85;7.65;;;;;;;14.23;100.00;95711.38;1016511;29;20431;-52
2021/07/30 00:43:50;;;;;;;11.00;7.63;;;;;;;14.22;100.00;95710.56;1019084;29;20025;-53
2021/07/30 00:44:21;;;;;;;10.82;7.78;;;;;;;14.20;100.00;95708.06;1017257;29;20015;-53
2021/07/30 00:44:52;;;;;;;8.77;7.75;;;;;;;14.18;100.00;95703.91;1023780;28;20019;-53
2021/07/30 00:45:22;;;;;;;12.73;8.02;;;;;;;14.18;100.00;95710.00;1023612;29;20011;-53
2021/07/30 00:45:54;;;;;;;15.35;7.72;;;;;;;14.17;100.00;95700.44;1019891;29;20087;-53
2021/07/30 00:46:27;;;;;;;9.07;7.65;;;;;;;14.18;100.00;95702.09;1019555;29;20115;-53
2021/07/30 00:46:58;;;;;;;11.05;8.80;;;;;;;14.18;100.00;95707.34;1015818;29;20083;-53
2021/07/30 00:47:29;;;;;;;11.05;8.38;;;;;;;14.18;100.00;95710.00;1015776;29;20083;-53
2021/07/30 00:48:00;;;;;;;12.07;7.80;;;;;;;14.18;100.00;95702.09;1016362;29;20020;-52
2021/07/30 00:48:30;;;;;;;11.00;8.02;;;;;;;14.20;100.00;95704.59;1015923;29;20016;-52
2021/07/30 00:49:01;;;;;;;10.15;8.27;;;;;;;14.18;100.00;95704.72;1020109;29;20028;-52
2021/07/30 00:49:32;;;;;;;12.82;8.70;;;;;;;14.16;100.00;95698.75;1011716;29;20023;-53
2021/07/30 00:50:03;;;;;;;9.85;8.63;;;;;;;14.17;100.00;95703.06;1011956;29;20503;-53
2021/07/30 00:50:34;;;;;;;9.30;7.78;;;;;;;14.18;100.00;95703.91;1023552;28;20011;-52
2021/07/30 00:51:05;;;;;;;10.93;8.20;;;;;;;14.17;100.00;95708.34;1023697;28;20023;-52
2021/07/30 00:51:36;;;;;;;10.02;7.93;;;;;;;14.17;100.00;95705.72;1023948;28;20015;-52
2021/07/30 00:52:07;;;;;;;15.55;8.48;;;;;;;14.22;100.00;95707.09;1028105;28;20015;-53
2021/07/30 00:52:38;;;;;;;9.13;7.70;;;;;;;14.19;100.00;95708.22;1031324;28;20015;-53
2021/07/30 00:53:08;;;;;;;10.25;8.25;;;;;;;14.19;100.00;95706.41;1023643;28;20445;-52
2021/07/30 00:53:39;;;;;;;11.45;8.38;;;;;;;14.23;100.00;95708.75;1019099;29;20011;-52
2021/07/30 00:54:12;;;;;;;11.68;7.85;;;;;;;14.27;100.00;95705.72;1019833;29;20030;-50
2021/07/30 00:54:42;;;;;;;9.40;7.70;;;;;;;14.26;100.00;95706.66;1020029;29;20114;-50
2021/07/30 00:55:13;;;;;;;10.15;7.13;;;;;;;14.32;100.00;95698.25;1020182;29;20039;-51
2021/07/30 00:55:44;;;;;;;9.25;8.25;;;;;;;14.34;100.00;95698.06;1019758;29;20008;-51
2021/07/30 00:56:15;;;;;;;11.38;7.32;;;;;;;14.31;100.00;95698.38;1015793;29;20024;-53
2021/07/30 00:56:47;;;;;;;11.10;8.38;;;;;;;14.31;100.00;95701.00;1023577;29;20019;-53
2021/07/30 00:57:18;;;;;;;14.13;8.43;;;;;;;14.31;100.00;95704.47;1023715;29;20063;-53
2021/07/30 00:57:49;;;;;;;11.05;7.75;;;;;;;14.32;100.00;95698.25;1020107;29;20015;-52
2021/07/30 00:58:19;;;;;;;9.75;7.72;;;;;;;14.33;100.00;95691.97;1019899;29;20023;-53
2021/07/30 00:58:50;;;;;;;8.80;7.25;;;;;;;14.33;100.00;95696.44;1015619;29;20467;-53
2021/07/30 00:59:22;;;;;;;11.68;7.60;;;;;;;14.34;100.00;95698.06;1023587;29;20090;-52
2021/07/30 00:59:53;;;;;;;12.63;7.88;;;;;;;14.41;100.00;95696.56;1015674;29;20027;-52
2021/07/30 01:00:23;;;;;;;13.90;7.72;;;;;;;14.43;100.00;95699.06;1015899;29;20510;-53
2021/07/30 01:00:55;;;;;;;12.68;8.88;;;;;;;14.43;100.00;95691.16;1011672;29;20032;-54
2021/07/30 01:01:26;;;;;;;9.15;7.43;;;;;;;14.44;100.00;95692.84;1011266;29;20123;-53
2021/07/30 01:01:56;;;;;;;12.43;8.38;;;;;;;14.43;100.00;95694.63;1015452;29;20076;-53
2021/07/30 01:02:27;;;;;;;10.93;8.55;;;;;;;14.45;100.00;95686.56;1020193;28;20031;-53
2021/07/30 01:03:00;;;;;;;10.35;7.97;;;;;;;14.44;100.00;95691.03;1023716;28;20023;-52
2021/07/30 01:03:31;;;;;;;12.55;8.10;;;;;;;14.45;100.00;95695.34;1022530;29;20095;-52
2021/07/30 01:04:03;;;;;;;13.70;8.00;;;;;;;14.44;100.00;95695.47;1015609;29;20384;-53
2021/07/30 01:04:34;;;;;;;14.13;8.40;;;;;;;14.44;100.00;95698.09;1016376;29;20020;-53
2021/07/30 01:05:05;;;;;;;13.02;8.70;;;;;;;14.43;100.00;95699.88;1015678;29;20111;-51
2021/07/30 01:05:36;;;;;;;10.18;8.27;;;;;;;14.40;100.00;95692.28;1015520;29;20036;-53
2021/07/30 01:06:06;;;;;;;10.85;8.02;;;;;;;14.37;100.00;95693.38;1012042;29;20479;-53
2021/07/30 01:06:37;;;;;;;10.07;8.25;;;;;;;14.38;100.00;95694.22;1019673;29;20141;-52
2021/07/30 01:07:07;;;;;;;11.88;9.07;;;;;;;14.36;100.00;95697.00;1019595;29;20055;-54
2021/07/30 01:07:39;;;;;;;12.30;8.63;;;;;;;14.33;100.00;95694.63;1019391;29;20082;-52
2021/07/30 01:08:10;;;;;;;10.57;8.15;;;;;;;14.31;100.00;95693.09;1019863;29;20374;-53
2021/07/30 01:08:40;;;;;;;8.80;7.38;;;;;;;14.29;100.00;95695.03;1015711;29;20061;-53
2021/07/30 01:09:11;;;;;;;10.13;7.88;;;;;;;14.28;100.00;95694.19;1019702;29;20410;-53
2021/07/30 01:09:42;;;;;;;9.80;8.32;;;;;;;14.30;100.00;95689.66;1015588;29;20075;-53
2021/07/30 01:10:12;;;;;;;12.57;8.75;;;;;;;14.28;100.00;95694.19;1015743;29;20080;-53
2021/07/30 01:10:43;;;;;;;10.20;8.15;;;;;;;14.26;100.00;95693.50;1019785;29;20106;-53
2021/07/30 01:11:14;;;;;;;10.60;7.90;;;;;;;14.22;100.00;95693.91;1019864;28;20118;-52
2021/07/30 01:11:45;;;;;;;10.40;8.00;;;;;;;14.24;100.00;95694.63;1027420;28;20497;-52
2021/07/30 01:12:15;;;;;;;13.57;8.00;;;;;;;14.22;100.00;95693.91;1027730;28;20085;-52
2021/07/30 01:12:46;;;;;;;12.82;8.40;;;;;;;14.25;100.00;95699.75;1027277;28;20393;-53
2021/07/30 01:13:17;;;;;;;12.43;8.70;;;;;;;14.26;100.00;95697.94;1023597;28;20015;-53
2021/07/30 01:13:48;;;;;;;10.35;8.73;;;;;;;14.25;100.00;95699.75;1018836;28;20115;-53
2021/07/30 01:14:18;;;;;;;9.98;8.50;;;;;;;14.25;100.00;95698.94;1019623;28;20027;-53
2021/07/30 01:14:49;;;;;;;12.00;8.68;;;;;;;14.25;100.00;95698.94;1023577;28;20031;-53
2021/07/30 01:15:21;;;;;;;9.77;7.88;;;;;;;14.24;100.00;95705.16;1023589;29;20022;-53
2021/07/30 01:15:51;;;;;;;13.95;8.50;;;;;;;14.21;100.00;95703.63;1023155;28;20019;-53
2021/07/30 01:16:22;;;;;;;10.07;7.80;;;;;;;14.23;100.00;95698.19;1027537;28;20117;-53
2021/07/30 01:16:52;;;;;;;12.48;8.90;;;;;;;14.21;100.00;95695.72;1023548;28;20046;-53
2021/07/30 01:17:26;;;;;;;12.88;9.40;;;;;;;14.20;100.00;95704.59;1019687;29;20103;-52
2021/07/30 01:17:57;;;;;;;11.35;8.95;;;;;;;14.22;100.00;95704.47;1027380;28;20058;-52
2021/07/30 01:18:28;;;;;;;11.65;9.48;;;;;;;14.19;100.00;95703.75;1023586;29;20056;-53
2021/07/30 01:18:58;;;;;;;9.75;8.13;;;;;;;14.16;100.00;95698.75;1023571;29;20027;-53
2021/07/30 01:19:29;;;;;;;9.98;8.45;;;;;;;14.15;100.00;95699.75;1019740;29;20019;-52
2021/07/30 01:20:00;;;;;;;11.05;9.15;;;;;;;14.15;100.00;95699.75;1015562;29;20083;-53
2021/07/30 01:20:30;;;;;;;13.52;8.90;;;;;;;14.16;100.00;95695.31;1015725;29;20020;-53
2021/07/30 01:21:18;;;;;;;11.85;9.50;;;;;;;14.14;100.00;95703.34;1019610;29;20016;-52
2021/07/30 01:21:52;;;;;;;12.73;9.18;;;;;;;14.14;100.00;95697.25;1019331;29;20490;-52
2021/07/30 01:22:30;;;;;;;12.38;8.85;;;;;;;14.12;100.00;95699.19;1019646;29;20019;-53
2021/07/30 01:23:01;;;;;;;16.60;9.48;;;;;;;14.12;100.00;95700.00;1015750;29;20115;-52
2021/07/30 01:23:32;;;;;;;11.80;8.57;;;;;;;14.11;100.00;95698.31;1019155;29;20023;-51
2021/07/30 01:24:03;;;;;;;13.82;9.25;;;;;;;14.14;100.00;95705.97;1019265;29;20019;-52
2021/07/30 01:24:34;;;;;;;11.13;9.18;;;;;;;14.14;100.00;95702.50;1023505;29;20093;-53
2021/07/30 01:25:04;;;;;;;12.38;9.00;;;;;;;14.15;100.00;95706.78;1023735;29;20480;-53
2021/07/30 01:25:35;;;;;;;9.98;8.65;;;;;;;14.14;100.00;95703.34;1015596;29;20490;-53
2021/07/30 01:26:06;;;;;;;11.38;8.98;;;;;;;14.13;100.00;95700.81;1015532;29;20058;-53
2021/07/30 01:26:37;;;;;;;15.48;10.35;;;;;;;14.09;100.00;95705.53;1015724;29;20028;-53
2021/07/30 01:27:07;;;;;;;10.85;9.75;;;;;;;14.10;100.00;95701.13;1020137;28;20027;-53
2021/07/30 01:27:38;;;;;;;10.60;9.25;;;;;;;14.10;100.00;95704.59;1023561;29;20506;-53
2021/07/30 01:28:09;;;;;;;10.85;9.05;;;;;;;14.06;100.00;95697.91;1019491;29;20062;-53
2021/07/30 01:28:39;;;;;;;10.02;8.90;;;;;;;14.07;100.00;95710.09;1019894;29;20016;-53
2021/07/30 01:29:10;;;;;;;10.95;8.93;;;;;;;14.09;100.00;95710.81;1015680;29;20494;-52
2021/07/30 01:29:41;;;;;;;14.15;9.65;;;;;;;14.06;100.00;95707.59;1015674;29;20409;-52
2021/07/30 01:30:13;;;;;;;14.48;9.98;;;;;;;14.06;100.00;95716.38;1015688;29;20031;-52
2021/07/30 01:30:44;;;;;;;11.07;9.00;;;;;;;14.08;100.00;95716.22;1016521;29;20069;-52
2021/07/30 01:31:15;;;;;;;12.07;9.60;;;;;;;14.08;100.00;95719.69;1020161;29;20156;-51
2021/07/30 01:31:45;;;;;;;14.95;9.70;;;;;;;14.04;100.00;95720.94;1019502;29;20019;-51
2021/07/30 01:32:16;;;;;;;13.27;9.45;;;;;;;14.04;100.00;95718.31;1015458;29;20020;-52
2021/07/30 01:32:46;;;;;;;12.13;8.95;;;;;;;14.04;100.00;95720.06;1015598;29;20145;-52
2021/07/30 01:33:17;;;;;;;12.93;9.27;;;;;;;14.06;100.00;95723.41;1016004;29;20020;-53
2021/07/30 01:33:48;;;;;;;11.80;9.52;;;;;;;14.09;100.00;95718.72;1019104;29;20028;-53
2021/07/30 01:34:19;;;;;;;13.07;8.93;;;;;;;14.11;100.00;95722.03;1019769;29;20500;-53
2021/07/30 01:34:49;;;;;;;12.20;9.02;;;;;;;14.10;100.00;95727.47;1015686;29;20081;-53
2021/07/30 01:35:20;;;;;;;12.65;9.05;;;;;;;14.09;100.00;95721.34;1015648;29;20024;-52
2021/07/30 01:35:51;;;;;;;10.45;8.30;;;;;;;14.09;100.00;95723.97;1019567;29;20103;-53
2021/07/30 01:36:22;;;;;;;10.00;8.38;;;;;;;14.10;100.00;95717.75;1019233;29;20024;-52
2021/07/30 01:36:52;;;;;;;13.00;8.45;;;;;;;14.12;100.00;95723.72;1012029;29;20028;-53
2021/07/30 01:37:25;;;;;;;10.00;8.40;;;;;;;14.14;100.00;95713.88;1011722;29;20542;-54
2021/07/30 01:37:55;;;;;;;11.18;8.27;;;;;;;14.18;100.00;95715.25;1015958;29;20086;-53
2021/07/30 01:38:26;;;;;;;10.68;8.35;;;;;;;14.17;100.00;95721.53;1019538;29;20024;-53
2021/07/30 01:38:57;;;;;;;10.45;7.80;;;;;;;14.20;100.00;95713.31;1019559;29;20028;-52
2021/07/30 01:39:27;;;;;;;11.65;7.95;;;;;;;14.26;100.00;95713.75;1023485;29;20113;-53
2021/07/30 01:39:59;;;;;;;9.20;7.82;;;;;;;14.26;100.00;95717.22;1019384;29;20019;-53
2021/07/30 01:40:29;;;;;;;10.57;9.10;;;;;;;14.24;100.00;95716.53;1015568;29;20060;-52
2021/07/30 01:41:15;;;;;;;10.13;7.95;;;;;;;14.24;100.00;95713.06;1015508;29;20119;-53
2021/07/30 01:41:46;;;;;;;11.48;8.65;;;;;;;14.22;100.00;95710.56;1019454;29;20383;-53
2021/07/30 01:42:17;;;;;;;10.82;7.78;;;;;;;14.23;100.00;95711.38;1019531;29;20026;-53
2021/07/30 01:42:48;;;;;;;10.07;7.90;;;;;;;14.24;100.00;95713.06;1019583;29;20443;-53
2021/07/30 01:43:19;;;;;;;12.15;7.93;;;;;;;14.25;100.00;95717.38;1019992;28;20108;-53
2021/07/30 01:43:49;;;;;;;12.13;8.70;;;;;;;14.26;100.00;95711.94;1023102;28;20042;-52
2021/07/30 01:44:20;;;;;;;13.13;8.23;;;;;;;14.26;100.00;95708.47;1023483;29;20019;-54
2021/07/30 01:44:51;;;;;;;12.00;9.05;;;;;;;14.24;100.00;95707.78;1015511;29;20028;-52
2021/07/30 01:45:22;;;;;;;10.93;8.98;;;;;;;14.20;100.00;95718.59;1019593;29;20044;-53
2021/07/30 01:45:52;;;;;;;15.85;8.57;;;;;;;14.19;100.00;95711.66;1019510;29;20019;-54
2021/07/30 01:46:23;;;;;;;10.75;8.63;;;;;;;14.15;100.00;95705.00;1019709;29;20110;-53
2021/07/30 01:46:54;;;;;;;12.82;9.15;;;;;;;14.13;100.00;95712.22;1019855;28;20047;-54
2021/07/30 01:47:26;;;;;;;13.45;8.52;;;;;;;14.12;100.00;95715.00;1019575;29;20092;-52
2021/07/30 01:47:57;;;;;;;13.30;9.40;;;;;;;14.10;100.00;95716.94;1019499;29;20042;-53
2021/07/30 01:48:28;;;;;;;12.20;9.05;;;;;;;14.09;100.00;95710.81;1016118;29;20537;-53
2021/07/30 01:48:59;;;;;;;14.18;8.73;;;;;;;14.09;100.00;95715.25;1016415;29;20586;-52
2021/07/30 01:49:29;;;;;;;10.77;9.00;;;;;;;14.09;100.00;95715.25;1023439;29;20027;-53
2021/07/30 01:50:00;;;;;;;11.80;8.25;;;;;;;14.08;100.00;95718.88;1023446;29;20110;-53
2021/07/30 01:50:31;;;;;;;12.50;9.50;;;;;;;14.09;100.00;95718.72;1027504;28;20018;-53
2021/07/30 01:51:02;;;;;;;11.15;8.45;;;;;;;14.07;100.00;95720.66;1023454;29;20110;-53
2021/07/30 01:51:33;;;;;;;12.65;8.90;;;;;;;13.99;100.00;95704.69;1023653;29;20011;-53
2021/07/30 01:52:05;;;;;;;11.23;8.60;;;;;;;14.01;100.00;95718.56;1023700;28;20413;-53
2021/07/30 01:52:35;;;;;;;17.70;9.77;;;;;;;14.02;100.00;95719.38;1023828;28;20509;-52
2021/07/30 01:53:06;;;;;;;12.02;9.23;;;;;;;14.00;100.00;95723.00;1019432;29;20028;-53
2021/07/30 01:53:36;;;;;;;12.50;8.75;;;;;;;14.03;100.00;95723.69;1018855;29;20027;-50
2021/07/30 01:54:07;;;;;;;12.65;8.57;;;;;;;14.02;100.00;95725.50;1019440;29;20078;-50
2021/07/30 01:54:38;;;;;;;12.27;9.02;;;;;;;14.03;100.00;95716.63;1019508;29;20034;-53
2021/07/30 01:55:09;;;;;;;10.30;8.68;;;;;;;14.01;100.00;95723.81;1015893;29;20562;-53
2021/07/30 01:55:40;;;;;;;12.27;9.35;;;;;;;14.00;100.00;95722.16;1015611;29;20024;-52
2021/07/30 01:56:11;;;;;;;11.13;9.10;;;;;;;14.00;100.00;95723.00;1015727;29;20060;-52
2021/07/30 01:56:42;;;;;;;11.25;9.57;;;;;;;14.00;100.00;95725.63;1019495;29;20066;-53
2021/07/30 01:57:13;;;;;;;10.65;9.43;;;;;;;13.96;100.00;95733.94;1015532;29;20035;-53
2021/07/30 01:57:44;;;;;;;12.55;9.50;;;;;;;13.94;100.00;95727.97;1016091;29;20020;-53
2021/07/30 01:58:15;;;;;;;13.13;9.60;;;;;;;13.97;100.00;95727.72;1019896;29;20122;-53
2021/07/30 01:58:45;;;;;;;14.35;10.13;;;;;;;13.97;100.00;95727.72;1023498;28;20070;-52
2021/07/30 01:59:16;;;;;;;14.45;9.85;;;;;;;13.98;100.00;95732.00;1027334;28;20093;-54
2021/07/30 01:59:47;;;;;;;11.70;9.43;;;;;;;13.97;100.00;95732.97;1027463;28;20527;-53
2021/07/30 02:00:18;;;;;;;11.50;9.50;;;;;;;13.95;100.00;95738.38;1027440;28;20022;-53
2021/07/30 02:00:48;;;;;;;11.68;9.30;;;;;;;13.94;100.00;95738.50;1023545;29;20034;-53
2021/07/30 02:01:19;;;;;;;12.55;9.93;;;;;;;13.94;100.00;95738.50;1019502;29;20445;-54
2021/07/30 02:01:50;;;;;;;13.18;9.93;;;;;;;13.94;100.00;95738.50;1015546;29;20021;-53
2021/07/30 02:02:20;;;;;;;9.88;8.57;;;;;;;13.94;100.00;95744.59;1019522;29;20012;-53
2021/07/30 02:02:51;;;;;;;10.63;9.45;;;;;;;13.95;100.00;95745.44;1023425;28;20083;-53
2021/07/30 02:03:22;;;;;;;12.95;9.50;;;;;;;14.00;100.00;95748.50;1023358;29;20023;-52
2021/07/30 02:03:53;;;;;;;10.18;8.45;;;;;;;14.01;100.00;95739.63;1010983;29;20009;-53
2021/07/30 02:04:23;;;;;;;14.07;9.45;;;;;;;14.02;100.00;95741.31;1019498;29;20482;-52
2021/07/30 02:04:54;;;;;;;12.85;9.68;;;;;;;14.02;100.00;95743.94;1019697;29;20446;-53
2021/07/30 02:05:25;;;;;;;11.73;9.45;;;;;;;14.05;100.00;95750.75;1019676;29;20027;-53
2021/07/30 02:05:56;;;;;;;12.70;9.15;;;;;;;14.05;100.00;95753.38;1023435;28;20066;-53
2021/07/30 02:06:26;;;;;;;11.13;8.80;;;;;;;14.07;100.00;95748.81;1019600;29;20119;-53
2021/07/30 02:06:57;;;;;;;13.05;8.85;;;;;;;14.11;100.00;95743.13;1019706;29;20100;-52
2021/07/30 02:07:28;;;;;;;10.18;8.45;;;;;;;14.10;100.00;95744.09;1019733;29;20016;-52
2021/07/30 02:07:58;;;;;;;10.75;8.43;;;;;;;14.08;100.00;95740.78;1019583;29;20475;-53
2021/07/30 02:08:29;;;;;;;11.52;8.43;;;;;;;14.11;100.00;95745.75;1019616;29;20103;-52
2021/07/30 02:09:00;;;;;;;12.00;8.23;;;;;;;14.16;100.00;95740.09;1019700;29;20024;-53
2021/07/30 02:09:31;;;;;;;11.57;8.48;;;;;;;14.18;100.00;95735.50;1019681;29;20016;-54
2021/07/30 02:10:02;;;;;;;10.23;8.35;;;;;;;14.20;100.00;95738.84;1015582;29;20012;-53
2021/07/30 02:10:33;;;;;;;9.88;8.82;;;;;;;14.19;100.00;95738.03;1019801;29;20091;-52
2021/07/30 02:11:08;;;;;;;13.45;8.50;;;;;;;14.18;100.00;95732.88;1023952;28;20015;-53
2021/07/30 02:11:41;;;;;;;10.13;7.80;;;;;;;14.19;100.00;95732.75;1020362;29;20019;-52
2021/07/30 02:12:15;;;;;;;10.05;8.27;;;;;;;14.20;100.00;95734.41;1019431;29;20020;-52
2021/07/30 02:15:57;;;;;;;10.57;8.00;;;;;;;14.15;100.00;95736.63;1016222;29;20060;-53
2021/07/30 02:16:28;;;;;;;10.35;7.63;;;;;;;14.14;100.00;95729.69;1012442;29;20040;-53
2021/07/30 02:16:58;;;;;;;12.05;8.95;;;;;;;14.12;100.00;95734.25;1016678;29;20016;-53
2021/07/30 02:17:29;;;;;;;10.93;8.27;;;;;;;14.13;100.00;95735.09;1024219;28;20106;-54
2021/07/30 02:18:00;;;;;;;9.55;8.38;;;;;;;14.13;100.00;95733.31;1024053;28;20023;-53
2021/07/30 02:18:30;;;;;;;10.35;8.18;;;;;;;14.16;100.00;95729.56;1024254;29;20043;-53
2021/07/30 02:19:01;;;;;;;10.88;7.75;;;;;;;14.15;100.00;95726.09;1024134;28;20050;-53
2021/07/30 02:19:32;;;;;;;10.35;7.60;;;;;;;14.19;100.00;95727.47;1024153;29;20021;-53
2021/07/30 02:20:02;;;;;;;13.65;8.77;;;;;;;14.18;100.00;95730.25;1020444;28;20043;-52
2021/07/30 02:20:33;;;;;;;10.95;8.70;;;;;;;14.16;100.00;95729.56;1016465;29;20443;-52
2021/07/30 02:21:04;;;;;;;11.88;8.20;;;;;;;14.14;100.00;95728.84;1024192;29;20155;-53
2021/07/30 02:21:34;;;;;;;12.73;7.70;;;;;;;14.16;100.00;95727.75;1024356;29;20019;-53
2021/07/30 02:22:05;;;;;;;12.07;8.15;;;;;;;14.15;100.00;95736.63;1024459;28;20086;-53
2021/07/30 02:22:36;;;;;;;10.65;8.18;;;;;;;14.16;100.00;95729.56;1024523;28;20020;-52
2021/07/30 02:23:07;;;;;;;10.80;8.00;;;;;;;14.13;100.00;95725.41;1024157;29;20019;-52
2021/07/30 02:23:37;;;;;;;10.75;8.60;;;;;;;14.12;100.00;95723.72;1019752;29;20576;-51
2021/07/30 02:24:08;;;;;;;14.20;8.45;;;;;;;14.11;100.00;95729.94;1024045;29;20110;-53
2021/07/30 02:24:39;;;;;;;10.15;8.50;;;;;;;14.10;100.00;95730.94;1024161;28;20060;-52
2021/07/30 02:25:11;;;;;;;10.60;8.68;;;;;;;14.06;100.00;95729.53;1020266;29;20102;-53
2021/07/30 02:25:41;;;;;;;12.07;8.27;;;;;;;14.07;100.00;95727.72;1023998;29;20023;-54
2021/07/30 02:26:12;;;;;;;8.77;7.65;;;;;;;14.10;100.00;95728.28;1024060;29;20113;-53